Time;durP1;ratioP1;P1;durP2;ratioP2;P2;SDS_P1;SDS_P2;PMS_P1;PMS_P2;Temp;Humidity;BMP_temperature;BMP_pressure;BME280_temperature;BME280_humidity;BME280_pressure;Samples;Min_cycle;Max_cycle;Signal;HPM_P1;HPM_P2
2023/11/01 00:01:29;;;;;;;0.25;0.25;;;10.20;99.90;;;;;;5086648;28;20040;-82
2023/11/01 00:03:55;;;;;;;0.10;0.10;;;10.10;99.90;;;;;;5091411;28;20028;-80
2023/11/01 00:06:20;;;;;;;0.00;0.00;;;10.00;99.90;;;;;;5093315;28;20399;-83
2023/11/01 00:08:46;;;;;;;0.00;0.00;;;9.90;99.90;;;;;;5096010;28;20764;-84
2023/11/01 00:11:12;;;;;;;0.10;0.10;;;9.80;99.90;;;;;;5090037;28;20055;-85
2023/11/01 00:13:37;;;;;;;0.10;0.10;;;9.80;99.90;;;;;;5098580;28;20554;-81
2023/11/01 00:16:03;;;;;;;0.10;0.10;;;9.70;99.90;;;;;;5090033;28;20024;-83
2023/11/01 00:18:30;;;;;;;0.10;0.10;;;9.70;99.90;;;;;;5093207;28;20515;-83
2023/11/01 00:20:56;;;;;;;0.10;0.10;;;9.70;99.90;;;;;;5098937;28;20024;-83
2023/11/01 00:23:21;;;;;;;0.10;0.10;;;9.70;99.90;;;;;;5103017;28;20036;-82
2023/11/01 00:25:47;;;;;;;0.00;0.00;;;9.60;99.90;;;;;;5095455;28;20024;-81
2023/11/01 00:28:13;;;;;;;0.10;0.10;;;9.60;99.90;;;;;;5098229;28;20028;-84
2023/11/01 00:30:38;;;;;;;0.05;0.05;;;9.60;99.90;;;;;;5096421;28;20035;-80
2023/11/01 00:33:04;;;;;;;0.10;0.10;;;9.60;99.90;;;;;;5093780;28;20027;-83
2023/11/01 00:35:30;;;;;;;0.10;0.10;;;9.60;99.90;;;;;;5101668;28;20074;-82
2023/11/01 00:37:55;;;;;;;0.10;0.10;;;9.60;99.90;;;;;;5102342;28;20319;-82
2023/11/01 00:40:21;;;;;;;0.00;0.00;;;9.50;99.90;;;;;;5095916;28;20505;-81
2023/11/01 00:42:46;;;;;;;0.10;0.10;;;9.60;99.90;;;;;;5093204;28;20503;-80
2023/11/01 00:45:12;;;;;;;0.03;0.03;;;9.60;99.90;;;;;;5098154;28;20123;-80
2023/11/01 00:47:38;;;;;;;0.10;0.10;;;9.60;99.90;;;;;;5095677;28;20020;-82
2023/11/01 00:50:05;;;;;;;0.00;0.00;;;9.60;99.90;;;;;;5097897;28;20027;-82
2023/11/01 00:52:31;;;;;;;0.00;0.00;;;9.80;99.90;;;;;;5099935;28;20034;-83
2023/11/01 00:54:57;;;;;;;0.10;0.10;;;9.80;99.90;;;;;;5096701;28;20028;-79
2023/11/01 00:57:23;;;;;;;0.10;0.10;;;9.90;99.90;;;;;;5102931;28;20124;-82
2023/11/01 00:59:48;;;;;;;0.00;0.00;;;9.90;99.90;;;;;;5099683;28;20136;-82
2023/11/01 01:02:14;;;;;;;0.00;0.00;;;10.00;99.90;;;;;;5105875;28;20570;-83
2023/11/01 01:04:45;;;;;;;0.10;0.10;;;10.00;99.90;;;;;;5104233;28;20028;-82
2023/11/01 01:07:11;;;;;;;0.08;0.08;;;10.00;99.90;;;;;;5095474;28;20623;-81
2023/11/01 01:09:37;;;;;;;0.10;0.10;;;9.90;99.90;;;;;;5089850;28;20832;-80
2023/11/01 01:12:03;;;;;;;0.75;0.73;;;9.90;99.90;;;;;;5090794;28;20036;-84
2023/11/01 01:14:29;;;;;;;0.00;0.00;;;9.80;99.90;;;;;;5092528;28;20024;-84
2023/11/01 01:16:54;;;;;;;0.00;0.00;;;9.70;99.90;;;;;;5100315;28;20276;-84
2023/11/01 01:19:22;;;;;;;0.08;0.08;;;9.70;99.90;;;;;;5096172;28;20019;-83
2023/11/01 01:21:48;;;;;;;0.00;0.00;;;9.60;99.90;;;;;;5098476;28;20402;-83
2023/11/01 01:24:14;;;;;;;0.00;0.00;;;9.50;99.90;;;;;;5090391;28;20024;-83
2023/11/01 01:26:40;;;;;;;0.10;0.10;;;9.50;99.90;;;;;;5095487;28;20027;-84
2023/11/01 01:29:06;;;;;;;0.10;0.10;;;9.60;99.90;;;;;;5090238;28;20058;-83
2023/11/01 01:31:33;;;;;;;0.00;0.00;;;9.50;99.90;;;;;;5086461;28;20471;-83
2023/11/01 01:33:59;;;;;;;0.10;0.10;;;9.60;99.90;;;;;;5094809;28;20031;-84
2023/11/01 01:36:26;;;;;;;0.08;0.08;;;9.40;99.90;;;;;;5088320;28;20605;-84
2023/11/01 01:38:51;;;;;;;0.10;0.10;;;9.40;99.90;;;;;;5090886;28;20029;-83
2023/11/01 01:41:17;;;;;;;0.10;0.10;;;9.30;99.90;;;;;;5094594;28;20036;-81
2023/11/01 01:43:43;;;;;;;0.10;0.10;;;9.20;99.90;;;;;;5090241;28;20495;-84
2023/11/01 01:46:10;;;;;;;0.10;0.10;;;9.30;99.90;;;;;;5090874;28;20743;-84
2023/11/01 01:48:37;;;;;;;0.05;0.05;;;9.40;99.90;;;;;;5095989;28;20032;-83
2023/11/01 01:51:04;;;;;;;0.10;0.10;;;9.40;99.90;;;;;;5088764;28;20020;-83
2023/11/01 01:53:35;;;;;;;0.10;0.10;;;9.40;99.90;;;;;;5085760;28;20101;-84
2023/11/01 01:56:02;;;;;;;0.10;0.10;;;9.50;99.90;;;;;;5084727;28;20380;-85
2023/11/01 01:58:30;;;;;;;0.10;0.10;;;9.50;99.90;;;;;;5086556;28;20131;-82
2023/11/01 02:00:56;;;;;;;0.10;0.10;;;9.50;99.90;;;;;;5091323;28;20052;-84
2023/11/01 02:03:23;;;;;;;0.03;0.03;;;9.50;99.90;;;;;;5092576;28;20038;-84
2023/11/01 02:05:49;;;;;;;0.00;0.00;;;9.50;99.90;;;;;;5087980;28;20474;-84
2023/11/01 02:08:15;;;;;;;0.10;0.10;;;9.60;99.90;;;;;;5087155;28;20019;-84
2023/11/01 02:10:41;;;;;;;0.00;0.00;;;9.80;99.90;;;;;;5088181;28;20023;-84
2023/11/01 02:13:11;;;;;;;0.00;0.00;;;9.80;99.90;;;;;;5093390;28;20063;-83
2023/11/01 02:15:38;;;;;;;0.10;0.10;;;9.90;99.90;;;;;;5088607;28;20542;-83
2023/11/01 02:18:04;;;;;;;0.00;0.00;;;10.00;99.90;;;;;;5084136;28;20504;-84
2023/11/01 02:20:33;;;;;;;0.10;0.10;;;10.00;99.90;;;;;;5089938;28;20089;-85
2023/11/01 02:22:59;;;;;;;0.03;0.03;;;10.10;99.90;;;;;;5085761;28;20035;-84
2023/11/01 02:25:25;;;;;;;0.10;0.10;;;10.10;99.90;;;;;;5096964;28;20020;-83
2023/11/01 02:27:51;;;;;;;0.15;0.15;;;10.20;99.90;;;;;;5087212;28;20114;-85
2023/11/01 02:30:17;;;;;;;0.10;0.10;;;10.00;99.90;;;;;;5084477;28;20026;-83
2023/11/01 02:32:47;;;;;;;0.00;0.00;;;9.90;99.90;;;;;;5094139;28;20460;-81
2023/11/01 02:35:20;;;;;;;0.10;0.10;;;9.80;99.90;;;;;;5093887;28;20051;-82
2023/11/01 02:37:47;;;;;;;0.10;0.10;;;9.70;99.90;;;;;;5093849;28;20775;-82
2023/11/01 02:40:14;;;;;;;0.32;0.32;;;9.60;99.90;;;;;;5088643;28;20069;-82
2023/11/01 02:42:40;;;;;;;0.10;0.10;;;9.40;99.90;;;;;;5084962;28;20036;-83
2023/11/01 02:45:09;;;;;;;0.10;0.10;;;9.40;99.90;;;;;;5093311;28;20443;-86
2023/11/01 02:47:35;;;;;;;0.10;0.10;;;9.50;99.90;;;;;;5084582;28;20041;-84
2023/11/01 02:50:03;;;;;;;6.88;5.72;;;9.60;99.90;;;;;;5099717;28;20046;-86
2023/11/01 02:52:29;;;;;;;0.10;0.10;;;9.70;99.90;;;;;;5086023;28;20402;-84
2023/11/01 02:54:55;;;;;;;0.00;0.00;;;9.80;99.90;;;;;;5088612;28;20034;-87
2023/11/01 02:57:20;;;;;;;0.10;0.10;;;9.90;99.90;;;;;;5092341;28;20024;-82
2023/11/01 02:59:46;;;;;;;0.10;0.10;;;10.10;99.90;;;;;;5094558;28;20479;-83
2023/11/01 03:02:12;;;;;;;0.00;0.00;;;10.00;99.90;;;;;;5092665;28;20026;-83
2023/11/01 03:04:38;;;;;;;0.10;0.10;;;10.10;99.90;;;;;;5084019;28;20116;-81
2023/11/01 03:07:04;;;;;;;0.10;0.10;;;10.00;99.90;;;;;;5096469;28;20038;-81
2023/11/01 03:09:30;;;;;;;0.00;0.00;;;10.10;99.90;;;;;;5084875;28;20032;-81
2023/11/01 03:11:55;;;;;;;0.10;0.10;;;10.10;99.90;;;;;;5096567;28;20032;-82
2023/11/01 03:14:21;;;;;;;0.73;0.73;;;10.10;99.90;;;;;;5092055;28;20031;-82
2023/11/01 03:16:46;;;;;;;0.00;0.00;;;10.20;99.90;;;;;;5094620;28;20027;-82
2023/11/01 03:19:12;;;;;;;0.10;0.10;;;10.20;99.90;;;;;;5084060;28;20032;-81
2023/11/01 03:21:42;;;;;;;0.10;0.10;;;10.30;99.90;;;;;;5088378;28;20032;-83
2023/11/01 03:24:08;;;;;;;0.10;0.10;;;10.40;99.90;;;;;;5086022;28;20101;-83
2023/11/01 03:26:34;;;;;;;0.00;0.00;;;10.40;99.90;;;;;;5086030;28;20648;-84
2023/11/01 03:29:00;;;;;;;0.10;0.10;;;10.30;99.90;;;;;;5083593;28;20031;-84
2023/11/01 03:31:26;;;;;;;0.03;0.03;;;10.30;99.90;;;;;;5084662;28;20020;-83
2023/11/01 03:33:52;;;;;;;0.00;0.00;;;10.20;99.90;;;;;;5081923;28;20036;-83
2023/11/01 03:36:18;;;;;;;0.00;0.00;;;10.10;99.90;;;;;;5086959;28;20095;-82
2023/11/01 03:38:43;;;;;;;0.00;0.00;;;10.10;99.90;;;;;;5091896;28;20032;-84
2023/11/01 03:41:09;;;;;;;0.10;0.10;;;10.10;99.90;;;;;;5084731;28;20047;-81
2023/11/01 03:43:35;;;;;;;0.00;0.00;;;10.20;99.90;;;;;;5084063;28;20078;-84
2023/11/01 03:46:02;;;;;;;0.00;0.00;;;10.20;99.90;;;;;;5094826;28;20076;-82
2023/11/01 03:48:27;;;;;;;0.00;0.00;;;10.10;99.90;;;;;;5090079;28;20027;-81
2023/11/01 03:50:53;;;;;;;0.00;0.00;;;10.00;99.90;;;;;;5091544;28;20036;-85
2023/11/01 03:53:19;;;;;;;0.00;0.00;;;10.00;99.90;;;;;;5093186;28;20635;-81
2023/11/01 03:55:44;;;;;;;0.10;0.10;;;9.90;99.90;;;;;;5090435;28;20035;-81
2023/11/01 03:58:10;;;;;;;0.10;0.10;;;9.90;99.90;;;;;;5093374;28;20031;-83
2023/11/01 04:00:36;;;;;;;0.10;0.10;;;9.60;99.90;;;;;;5087530;28;20672;-82
2023/11/01 04:03:01;;;;;;;0.10;0.10;;;9.60;99.90;;;;;;5091656;28;20036;-82
2023/11/01 04:05:27;;;;;;;0.10;0.10;;;9.70;99.90;;;;;;5086033;28;20115;-81
2023/11/01 04:07:53;;;;;;;0.00;0.00;;;9.40;99.90;;;;;;5088154;28;20061;-81
2023/11/01 04:10:19;;;;;;;0.10;0.10;;;9.20;99.90;;;;;;5094469;28;20119;-80
2023/11/01 04:12:45;;;;;;;0.08;0.08;;;9.10;99.90;;;;;;5093903;28;20521;-81
2023/11/01 04:15:12;;;;;;;0.10;0.10;;;9.10;99.90;;;;;;5090568;28;20028;-84
2023/11/01 04:17:41;;;;;;;0.00;0.00;;;9.10;99.90;;;;;;5098190;28;20122;-81
2023/11/01 04:20:08;;;;;;;0.10;0.10;;;9.00;99.90;;;;;;5099916;28;20035;-81
2023/11/01 04:22:38;;;;;;;0.10;0.10;;;9.10;99.90;;;;;;5101853;28;20142;-82
2023/11/01 04:25:10;;;;;;;0.10;0.10;;;9.00;99.90;;;;;;5100633;28;20034;-82
2023/11/01 04:27:39;;;;;;;0.10;0.10;;;9.00;99.90;;;;;;5099996;28;20102;-84
2023/11/01 04:30:15;;;;;;;0.08;0.08;;;9.20;99.90;;;;;;5097474;28;20387;-83
2023/11/01 04:32:41;;;;;;;0.10;0.10;;;9.40;99.90;;;;;;5095878;28;20107;-80
2023/11/01 04:35:11;;;;;;;0.00;0.00;;;9.70;99.90;;;;;;5094479;28;20105;-83
2023/11/01 04:37:40;;;;;;;0.10;0.10;;;9.90;99.90;;;;;;5092968;28;20032;-82
2023/11/01 04:40:11;;;;;;;0.10;0.10;;;10.00;99.90;;;;;;5094321;28;20024;-85
2023/11/01 04:42:41;;;;;;;0.10;0.10;;;10.10;99.90;;;;;;5092044;28;20043;-82
2023/11/01 04:45:08;;;;;;;0.10;0.10;;;10.10;99.90;;;;;;5105340;28;20032;-82
2023/11/01 04:47:38;;;;;;;0.10;0.10;;;10.10;99.90;;;;;;5093619;28;20538;-85
2023/11/01 04:50:10;;;;;;;0.10;0.10;;;10.20;99.90;;;;;;5092265;28;20024;-82
2023/11/01 04:52:37;;;;;;;0.10;0.10;;;10.00;99.90;;;;;;5089416;28;20028;-83
2023/11/01 04:55:06;;;;;;;0.10;0.10;;;9.90;99.90;;;;;;5092023;28;20132;-83
2023/11/01 04:57:32;;;;;;;0.00;0.00;;;9.80;99.90;;;;;;5100880;28;20051;-80
2023/11/01 04:59:58;;;;;;;0.20;0.20;;;10.00;99.90;;;;;;5106839;28;20087;-84
2023/11/01 05:02:24;;;;;;;0.10;0.10;;;9.80;99.90;;;;;;5105274;28;20550;-81
2023/11/01 05:04:50;;;;;;;0.00;0.00;;;9.90;99.90;;;;;;5100209;28;20020;-83
2023/11/01 05:07:16;;;;;;;0.10;0.10;;;9.80;99.90;;;;;;5101459;28;20044;-83
2023/11/01 05:09:42;;;;;;;0.10;0.10;;;9.90;99.90;;;;;;5100907;28;20012;-83
2023/11/01 05:12:08;;;;;;;0.10;0.10;;;9.90;99.90;;;;;;5097701;28;20016;-81
2023/11/01 05:14:34;;;;;;;0.00;0.00;;;9.90;99.90;;;;;;5091126;28;20497;-81
2023/11/01 05:17:00;;;;;;;0.10;0.10;;;10.00;99.90;;;;;;5101532;28;20028;-82
2023/11/01 05:19:25;;;;;;;0.10;0.10;;;10.10;99.90;;;;;;5094849;28;20024;-83
2023/11/01 05:21:51;;;;;;;0.10;0.10;;;10.10;99.90;;;;;;5099864;28;20719;-81
2023/11/01 05:24:17;;;;;;;0.10;0.10;;;10.20;99.90;;;;;;5093587;28;20154;-81
2023/11/01 05:26:43;;;;;;;0.10;0.10;;;10.20;99.90;;;;;;5100559;28;20028;-81
2023/11/01 05:29:10;;;;;;;0.10;0.10;;;10.20;99.90;;;;;;5093680;28;20035;-83
2023/11/01 05:31:36;;;;;;;0.10;0.10;;;10.30;99.90;;;;;;5089137;28;20141;-83
2023/11/01 05:34:03;;;;;;;0.10;0.10;;;10.20;99.90;;;;;;5095644;28;20126;-85
2023/11/01 05:36:29;;;;;;;0.10;0.10;;;10.30;99.90;;;;;;5095667;28;20388;-84
2023/11/01 05:38:55;;;;;;;0.10;0.10;;;10.30;99.90;;;;;;5096480;28;20028;-82
2023/11/01 05:41:21;;;;;;;0.00;0.00;;;10.40;99.90;;;;;;5097168;28;20094;-82
2023/11/01 05:43:46;;;;;;;0.10;0.10;;;10.30;99.90;;;;;;5097760;28;20027;-83
2023/11/01 05:46:12;;;;;;;0.00;0.00;;;10.40;99.90;;;;;;5100015;28;20024;-81
2023/11/01 05:48:38;;;;;;;0.77;0.45;;;10.50;99.90;;;;;;5096494;28;20084;-83
2023/11/01 05:51:04;;;;;;;0.03;0.03;;;10.50;99.90;;;;;;5097851;28;20637;-83
2023/11/01 05:53:33;;;;;;;0.10;0.10;;;10.40;99.90;;;;;;5093422;28;20024;-82
2023/11/01 05:55:59;;;;;;;0.00;0.00;;;10.40;99.90;;;;;;5092862;28;20023;-84
2023/11/01 05:58:26;;;;;;;0.10;0.10;;;10.50;99.90;;;;;;5090361;28;20074;-84
2023/11/01 06:00:52;;;;;;;0.10;0.10;;;10.50;99.90;;;;;;5088125;28;20039;-83
2023/11/01 06:03:18;;;;;;;0.00;0.00;;;10.50;99.90;;;;;;5093861;28;20040;-83
2023/11/01 06:05:43;;;;;;;0.00;0.00;;;10.40;99.90;;;;;;5093206;28;20039;-83
2023/11/01 06:08:10;;;;;;;0.07;0.07;;;10.40;99.90;;;;;;5091731;28;20039;-84
2023/11/01 06:10:36;;;;;;;0.03;0.03;;;10.40;99.90;;;;;;5094499;28;20495;-82
2023/11/01 06:13:03;;;;;;;0.00;0.00;;;10.40;99.90;;;;;;5104233;28;20549;-83
2023/11/01 06:15:28;;;;;;;0.10;0.10;;;10.40;99.90;;;;;;5102423;28;20039;-81
2023/11/01 06:17:54;;;;;;;1.33;1.25;;;10.40;99.90;;;;;;5097030;28;20032;-84
2023/11/01 06:20:20;;;;;;;0.10;0.10;;;10.40;99.90;;;;;;5102616;28;20109;-83
2023/11/01 06:22:45;;;;;;;0.10;0.10;;;10.50;99.90;;;;;;5101302;28;20124;-82
2023/11/01 06:25:11;;;;;;;0.00;0.00;;;10.50;99.90;;;;;;5097423;28;20023;-85
2023/11/01 06:27:38;;;;;;;0.10;0.10;;;10.40;99.90;;;;;;5087795;28;20040;-85
2023/11/01 06:30:05;;;;;;;0.10;0.10;;;10.30;99.90;;;;;;5086562;27;20410;-84
2023/11/01 06:32:37;;;;;;;0.03;0.03;;;10.30;99.90;;;;;;5085822;28;20036;-84
2023/11/01 06:35:03;;;;;;;0.10;0.10;;;10.20;99.90;;;;;;5103552;28;20020;-82
2023/11/01 06:37:29;;;;;;;0.00;0.00;;;10.20;99.90;;;;;;5090213;28;20012;-85
2023/11/01 06:39:55;;;;;;;0.10;0.10;;;10.10;99.90;;;;;;5099918;28;20061;-83
2023/11/01 06:42:20;;;;;;;0.10;0.10;;;10.10;99.90;;;;;;5098405;28;20039;-81
2023/11/01 06:44:46;;;;;;;0.00;0.00;;;10.20;99.90;;;;;;5093359;28;20028;-81
2023/11/01 06:47:12;;;;;;;0.05;0.05;;;10.30;99.90;;;;;;5104589;28;20102;-83
2023/11/01 06:49:38;;;;;;;0.10;0.10;;;10.50;99.90;;;;;;5095631;28;20032;-81
2023/11/01 06:52:07;;;;;;;0.10;0.10;;;10.50;99.90;;;;;;5086353;28;20028;-84
2023/11/01 06:54:34;;;;;;;0.05;0.05;;;10.60;99.90;;;;;;5090701;28;20024;-81
2023/11/01 06:56:59;;;;;;;0.00;0.00;;;10.60;99.90;;;;;;5104795;28;20056;-83
2023/11/01 06:59:25;;;;;;;0.10;0.10;;;10.60;99.90;;;;;;5093638;28;20116;-81
2023/11/01 07:01:51;;;;;;;0.00;0.00;;;10.60;99.90;;;;;;5096966;28;20113;-83
2023/11/01 07:04:17;;;;;;;0.10;0.10;;;10.60;99.90;;;;;;5096301;28;20502;-84
2023/11/01 07:06:44;;;;;;;0.10;0.10;;;10.70;99.90;;;;;;5098703;28;20476;-85
2023/11/01 07:09:10;;;;;;;0.10;0.10;;;10.70;99.90;;;;;;5089631;28;20020;-79
2023/11/01 07:11:36;;;;;;;0.10;0.10;;;10.60;99.90;;;;;;5092219;28;20499;-85
2023/11/01 07:14:04;;;;;;;0.00;0.00;;;10.80;99.90;;;;;;5096891;28;20821;-84
2023/11/01 07:16:31;;;;;;;0.00;0.00;;;10.70;99.90;;;;;;5097249;28;20842;-82
2023/11/01 07:18:58;;;;;;;;;;;10.80;99.90;;;;;;5102345;28;20051;-80
2023/11/01 07:21:24;;;;;;;0.10;0.10;;;10.90;99.90;;;;;;5099086;28;20275;-79
2023/11/01 07:23:50;;;;;;;0.08;0.08;;;10.90;99.90;;;;;;5095717;28;20032;-79
2023/11/01 07:26:16;;;;;;;0.03;0.03;;;10.90;99.90;;;;;;5104725;28;20497;-81
2023/11/01 07:28:41;;;;;;;0.00;0.00;;;10.90;99.90;;;;;;5100150;28;20398;-81
2023/11/01 07:31:07;;;;;;;0.00;0.00;;;11.00;99.90;;;;;;5102215;28;20031;-79
2023/11/01 07:33:33;;;;;;;0.00;0.00;;;11.00;99.90;;;;;;5092385;28;20627;-85
2023/11/01 07:35:58;;;;;;;0.05;0.05;;;11.10;99.90;;;;;;5095432;28;20680;-81
2023/11/01 07:38:24;;;;;;;0.05;0.05;;;11.10;99.90;;;;;;5094972;28;20039;-81
2023/11/01 07:40:50;;;;;;;0.10;0.10;;;11.10;99.90;;;;;;5089967;28;20139;-79
2023/11/01 07:43:15;;;;;;;0.00;0.00;;;11.20;99.90;;;;;;5094078;28;20047;-80
2023/11/01 07:45:41;;;;;;;0.05;0.05;;;11.20;99.90;;;;;;5092218;28;20035;-83
2023/11/01 07:48:08;;;;;;;0.00;0.00;;;11.30;99.90;;;;;;5091510;28;20035;-81
2023/11/01 07:50:34;;;;;;;0.00;0.00;;;11.40;99.90;;;;;;5099688;28;20118;-80
2023/11/01 07:53:00;;;;;;;0.10;0.10;;;11.40;99.90;;;;;;5095671;28;20031;-79
2023/11/01 07:55:26;;;;;;;0.10;0.10;;;11.50;99.90;;;;;;5097804;28;20024;-79
2023/11/01 07:57:51;;;;;;;0.00;0.00;;;11.60;99.90;;;;;;5099554;28;20665;-81
2023/11/01 08:00:17;;;;;;;0.10;0.10;;;11.60;99.90;;;;;;5102549;28;20565;-79
2023/11/01 08:02:43;;;;;;;0.10;0.10;;;11.60;99.90;;;;;;5098803;28;20039;-82
2023/11/01 08:05:09;;;;;;;0.03;0.03;;;11.60;99.90;;;;;;5093413;28;20036;-83
2023/11/01 08:07:35;;;;;;;0.32;0.32;;;11.60;99.90;;;;;;5094412;28;20055;-81
2023/11/01 08:10:01;;;;;;;0.03;0.03;;;11.70;99.90;;;;;;5094401;28;20035;-81
2023/11/01 08:12:26;;;;;;;0.00;0.00;;;11.70;99.90;;;;;;5096058;28;20025;-82
2023/11/01 08:14:52;;;;;;;0.03;0.03;;;11.70;99.90;;;;;;5094240;28;20612;-80
2023/11/01 08:17:18;;;;;;;0.10;0.10;;;11.60;99.90;;;;;;5098314;28;20031;-85
2023/11/01 08:19:44;;;;;;;0.10;0.10;;;11.70;99.90;;;;;;5095110;28;20054;-81
2023/11/01 08:22:13;;;;;;;0.00;0.00;;;11.80;99.90;;;;;;5105015;28;20046;-81
2023/11/01 08:24:39;;;;;;;0.10;0.10;;;12.00;99.90;;;;;;5097934;28;20024;-80
2023/11/01 08:27:06;;;;;;;0.10;0.10;;;12.10;99.90;;;;;;5095877;28;20036;-81
2023/11/01 08:29:33;;;;;;;0.20;0.20;;;12.20;99.90;;;;;;5098944;28;20119;-81
2023/11/01 08:31:59;;;;;;;0.10;0.10;;;12.20;99.90;;;;;;5103507;28;20074;-82
2023/11/01 08:34:25;;;;;;;0.00;0.00;;;12.20;99.90;;;;;;5096974;28;20082;-81
2023/11/01 08:36:50;;;;;;;0.10;0.10;;;12.30;99.90;;;;;;5101773;28;20032;-82
2023/11/01 08:39:17;;;;;;;0.05;0.05;;;12.30;99.90;;;;;;5101825;28;20301;-81
2023/11/01 08:41:42;;;;;;;0.00;0.00;;;12.40;99.90;;;;;;5098124;28;20096;-80
2023/11/01 08:44:09;;;;;;;0.00;0.00;;;12.40;99.90;;;;;;5098183;28;20028;-84
2023/11/01 08:46:35;;;;;;;0.00;0.00;;;12.40;99.90;;;;;;5090603;28;20447;-82
2023/11/01 08:49:00;;;;;;;0.00;0.00;;;12.50;99.90;;;;;;5086433;28;20032;-83
2023/11/01 08:51:26;;;;;;;0.00;0.00;;;12.60;99.90;;;;;;5085130;28;20036;-82
2023/11/01 08:53:52;;;;;;;0.10;0.10;;;12.60;99.90;;;;;;5099695;28;20027;-80
2023/11/01 08:56:17;;;;;;;0.03;0.03;;;12.60;99.90;;;;;;5103227;28;20022;-81
2023/11/01 08:58:43;;;;;;;0.00;0.00;;;12.50;99.90;;;;;;5091341;28;20347;-85
2023/11/01 09:01:09;;;;;;;0.10;0.10;;;12.30;99.90;;;;;;5094985;28;20151;-86
2023/11/01 09:03:35;;;;;;;0.00;0.00;;;12.30;99.90;;;;;;5104724;28;20114;-88
2023/11/01 09:06:01;;;;;;;0.10;0.10;;;12.10;99.90;;;;;;5088522;28;20158;-87
2023/11/01 09:08:26;;;;;;;0.00;0.00;;;12.10;99.90;;;;;;5103473;28;20027;-87
2023/11/01 09:10:52;;;;;;;0.00;0.00;;;12.00;99.90;;;;;;5096512;28;20038;-86
2023/11/01 09:13:18;;;;;;;0.10;0.10;;;12.00;99.90;;;;;;5104864;28;20103;-87
2023/11/01 09:15:45;;;;;;;0.10;0.10;;;12.10;99.90;;;;;;5087376;28;20024;-86
2023/11/01 09:18:11;;;;;;;0.10;0.10;;;12.10;99.90;;;;;;5085120;28;20099;-87
2023/11/01 09:20:37;;;;;;;0.10;0.10;;;12.00;99.90;;;;;;5093028;28;20152;-87
2023/11/01 09:23:03;;;;;;;0.10;0.10;;;12.00;99.90;;;;;;5085437;28;20863;-86
2023/11/01 09:25:30;;;;;;;0.00;0.00;;;11.90;99.90;;;;;;5094756;28;20905;-86
2023/11/01 09:27:56;;;;;;;0.10;0.10;;;11.80;99.90;;;;;;5099139;28;20035;-87
2023/11/01 09:30:22;;;;;;;0.10;0.10;;;11.70;99.90;;;;;;5099840;28;20020;-87
2023/11/01 09:32:47;;;;;;;0.10;0.10;;;11.60;99.90;;;;;;5092019;28;20032;-87
2023/11/01 09:35:13;;;;;;;0.00;0.00;;;11.50;99.90;;;;;;5092311;28;20020;-87
2023/11/01 09:37:39;;;;;;;0.00;0.00;;;11.60;99.90;;;;;;5099589;28;20107;-88
2023/11/01 09:40:05;;;;;;;0.10;0.10;;;11.70;99.90;;;;;;5098771;28;20502;-87
2023/11/01 09:42:31;;;;;;;0.10;0.10;;;11.60;99.90;;;;;;5097012;28;20418;-88
2023/11/01 09:44:58;;;;;;;0.00;0.00;;;11.60;99.90;;;;;;5095855;28;20174;-88
2023/11/01 09:47:28;;;;;;;0.00;0.00;;;11.50;99.90;;;;;;5098046;28;20265;-87
2023/11/01 09:49:54;;;;;;;0.10;0.10;;;11.60;99.90;;;;;;5096790;28;20771;-87
2023/11/01 09:52:21;;;;;;;0.10;0.10;;;11.60;99.90;;;;;;5090764;28;20096;-87
2023/11/01 09:54:47;;;;;;;0.10;0.10;;;11.60;99.90;;;;;;5085727;28;20039;-88
2023/11/01 09:57:15;;;;;;;0.00;0.00;;;11.50;99.90;;;;;;5102877;28;20020;-87
2023/11/01 09:59:41;;;;;;;0.10;0.10;;;11.50;99.90;;;;;;5089911;28;20079;-88
2023/11/01 10:02:10;;;;;;;0.03;0.03;;;11.50;99.90;;;;;;5093606;28;20122;-89
2023/11/01 10:04:39;;;;;;;0.10;0.10;;;11.50;99.90;;;;;;5086095;28;20024;-87
2023/11/01 10:07:06;;;;;;;0.03;0.03;;;11.60;99.90;;;;;;5096954;28;20024;-88
2023/11/01 10:09:32;;;;;;;0.00;0.00;;;11.60;99.90;;;;;;5090546;28;20028;-88
2023/11/01 10:11:57;;;;;;;0.13;0.13;;;11.40;99.90;;;;;;5090713;28;20042;-87
2023/11/01 10:14:41;;;;;;;0.00;0.00;;;11.20;99.90;;;;;;5084993;28;20020;-87
2023/11/01 10:17:07;;;;;;;0.10;0.10;;;11.30;99.90;;;;;;5085808;28;20032;-87
2023/11/01 10:19:33;;;;;;;0.00;0.00;;;11.20;99.90;;;;;;5089453;28;20833;-87
2023/11/01 10:22:00;;;;;;;0.10;0.10;;;11.10;99.90;;;;;;5085054;28;20032;-87
2023/11/01 10:24:26;;;;;;;0.10;0.10;;;11.00;99.90;;;;;;5090240;28;20012;-88
2023/11/01 10:26:52;;;;;;;0.10;0.10;;;10.80;99.90;;;;;;5085232;28;20439;-86
2023/11/01 10:29:18;;;;;;;0.00;0.00;;;10.70;99.90;;;;;;5098239;28;20100;-87
2023/11/01 10:31:58;;;;;;;0.00;0.00;;;11.00;99.90;;;;;;5083399;28;20032;-87
2023/11/01 10:34:31;;;;;;;0.00;0.00;;;11.30;99.90;;;;;;5094294;28;20088;-87
2023/11/01 10:36:58;;;;;;;0.13;0.13;;;11.30;99.90;;;;;;5084969;28;20111;-87
2023/11/01 10:39:24;;;;;;;0.10;0.10;;;11.80;99.90;;;;;;5086904;28;20020;-87
2023/11/01 10:41:54;;;;;;;0.00;0.00;;;11.80;99.90;;;;;;5091053;28;20334;-87
2023/11/01 10:44:21;;;;;;;0.10;0.10;;;12.00;99.90;;;;;;5084703;28;20050;-87
2023/11/01 10:46:47;;;;;;;0.10;0.10;;;12.30;99.90;;;;;;5087088;28;20028;-86
2023/11/01 10:49:14;;;;;;;0.10;0.10;;;12.80;99.90;;;;;;5092613;28;20021;-87
2023/11/01 10:51:41;;;;;;;0.00;0.00;;;12.80;99.90;;;;;;5091289;28;20435;-87
2023/11/01 10:54:10;;;;;;;0.10;0.10;;;13.00;99.90;;;;;;5085456;28;20052;-87
2023/11/01 10:56:37;;;;;;;0.00;0.00;;;13.00;99.90;;;;;;5092500;28;20028;-87
2023/11/01 10:59:09;;;;;;;0.00;0.00;;;12.90;99.90;;;;;;5084118;28;20151;-87
2023/11/01 11:01:42;;;;;;;0.10;0.10;;;12.70;99.90;;;;;;5093715;28;20060;-87
2023/11/01 11:04:20;;;;;;;0.00;0.00;;;12.80;99.90;;;;;;5084140;28;20078;-86
2023/11/01 11:06:57;;;;;;;0.00;0.00;;;12.90;99.90;;;;;;5084524;28;20035;-87
2023/11/01 11:09:24;;;;;;;0.03;0.03;;;13.00;99.90;;;;;;5088961;28;20736;-87
2023/11/01 11:12:24;;;;;;;0.00;0.00;;;12.90;99.90;;;;;;5091860;28;20107;-87
2023/11/01 11:14:51;;;;;;;0.03;0.03;;;12.90;99.90;;;;;;5110184;27;20038;-86
2023/11/01 11:17:21;;;;;;;0.10;0.10;;;12.90;99.90;;;;;;5091556;28;20024;-86
2023/11/01 11:20:09;;;;;;;0.00;0.00;;;12.90;99.90;;;;;;5081454;28;20119;-88
2023/11/01 11:23:08;;;;;;;0.00;0.00;;;12.70;99.90;;;;;;5068516;28;20086;-88
2023/11/01 11:25:49;;;;;;;0.00;0.00;;;12.70;99.90;;;;;;5075365;28;20039;-87
2023/11/01 11:28:18;;;;;;;0.10;0.10;;;12.70;99.90;;;;;;5086592;28;20016;-87
2023/11/01 11:31:03;;;;;;;0.08;0.08;;;12.50;99.90;;;;;;5088019;28;20032;-87
2023/11/01 11:33:31;;;;;;;0.03;0.03;;;12.40;99.90;;;;;;5088168;28;21577;-87
2023/11/01 11:36:12;;;;;;;0.15;0.15;;;12.60;99.90;;;;;;5094547;28;20030;-88
2023/11/01 11:38:46;;;;;;;0.10;0.10;;;12.80;99.90;;;;;;5083269;28;20120;-88
2023/11/01 11:41:42;;;;;;;0.00;0.00;;;13.10;99.90;;;;;;5083575;28;20020;-87
2023/11/01 11:44:20;;;;;;;0.00;0.00;;;13.20;99.90;;;;;;5083799;28;20050;-88
2023/11/01 11:46:52;;;;;;;0.10;0.10;;;13.40;99.90;;;;;;5082017;28;20036;-87
2023/11/01 11:49:23;;;;;;;0.00;0.00;;;13.50;99.90;;;;;;5085747;28;20040;-86
2023/11/01 11:51:56;;;;;;;0.00;0.00;;;13.30;99.90;;;;;;5088945;28;20039;-87
2023/11/01 11:54:24;;;;;;;0.00;0.00;;;13.20;99.90;;;;;;5085108;28;20035;-88
2023/11/01 11:56:53;;;;;;;0.00;0.00;;;13.10;99.90;;;;;;5086895;28;20015;-88
2023/11/01 11:59:24;;;;;;;0.00;0.00;;;13.10;99.90;;;;;;5084562;28;20055;-87
2023/11/01 12:01:51;;;;;;;0.00;0.00;;;13.10;99.90;;;;;;5101431;28;20838;-87
2023/11/01 12:04:18;;;;;;;0.00;0.00;;;13.20;99.90;;;;;;5087334;28;20402;-87
2023/11/01 12:06:50;;;;;;;0.08;0.08;;;13.30;99.90;;;;;;5081692;28;20608;-87
2023/11/01 12:09:17;;;;;;;0.10;0.10;;;13.60;99.90;;;;;;5084904;28;20032;-87
2023/11/01 12:11:51;;;;;;;0.00;0.00;;;13.50;99.90;;;;;;5086905;28;20031;-86
2023/11/01 12:14:18;;;;;;;0.03;0.03;;;13.90;99.90;;;;;;5087621;28;20051;-86
2023/11/01 12:16:44;;;;;;;0.00;0.00;;;14.10;99.90;;;;;;5095945;28;20034;-86
2023/11/01 12:19:18;;;;;;;0.00;0.00;;;14.20;99.90;;;;;;5083216;28;20028;-87
2023/11/01 12:21:51;;;;;;;0.00;0.00;;;14.10;99.90;;;;;;5084323;28;20262;-87
2023/11/01 12:24:37;;;;;;;0.00;0.00;;;14.20;99.90;;;;;;5089118;28;20035;-87
2023/11/01 12:27:06;;;;;;;0.10;0.10;;;14.30;99.90;;;;;;5086845;28;20074;-86
2023/11/01 12:29:32;;;;;;;0.00;0.00;;;14.20;99.90;;;;;;5091141;28;20035;-87
2023/11/01 12:32:00;;;;;;;0.00;0.00;;;14.20;99.90;;;;;;5089199;28;20016;-87
2023/11/01 12:34:26;;;;;;;0.08;0.08;;;14.10;99.90;;;;;;5086643;28;20103;-87
2023/11/01 12:37:05;;;;;;;0.00;0.00;;;13.90;99.90;;;;;;5086599;28;20030;-87
2023/11/01 12:39:32;;;;;;;0.00;0.00;;;13.80;99.90;;;;;;5093146;28;20499;-86
2023/11/01 12:42:18;;;;;;;0.08;0.08;;;14.00;99.90;;;;;;5086688;28;20040;-87
2023/11/01 12:44:44;;;;;;;0.00;0.00;;;13.90;99.90;;;;;;5085564;28;20749;-87
2023/11/01 12:47:09;;;;;;;0.00;0.00;;;14.00;99.90;;;;;;5087682;28;20024;-87
2023/11/01 12:49:40;;;;;;;0.00;0.00;;;14.00;99.90;;;;;;5091145;28;20433;-87
2023/11/01 12:52:05;;;;;;;0.00;0.00;;;14.20;99.90;;;;;;5089796;28;20051;-87